Tiempo atmosférico en la estación meteorológica de Motril, Granada (3 m.)



Fecha
DESCASC
Temp. máxima en grados centígrados (hora)
DESCASC
Temp. mínima en grados centígrados (hora)
DESCASC
Temp. media en grados centígrados
DESCASC
Racha de viento máxima en m/sg (hora)
DESCASC
Velocidad máxima media en intervalos de 10 minutos(hora)
DESCASC
Precipitaciones diarias en mm
DESCASC
Precipitaciones de 00:00 a 06:00 en mm
DESCASC
Precipitaciones de 06:00 a 12:00 en mm
DESCASC
Precipitaciones de 12:00 a 18:00 en mm
DESCASC
Precipitaciones de 18:00 a 24:00 en mm
DESCASC
22-08-2019 29.6 (09:40) 23.8 (06:30) 26.7 11.11 (13:50) 7.78 (13:40) 0 0 0 0 0
21-08-2019 27.9 (13:20) 23.3 (07:00) 25.6 10 (14:10) 6.39 (13:40) 0 0 0 0 0
20-08-2019 29.6 (10:40) 20.2 (07:10) 24.9 8.89 (13:00) 6.39 (11:40) 0 0 0 0 0
19-08-2019 31.9 (19:30) 21.2 (05:40) 26.6 6.94 (02:10) 4.17 (02:20) 0 0 0 0 0
18-08-2019 29.2 (19:30) 20.8 (00:00) 25 5.28 (16:50) 3.33 (16:20) 0 0 0 0 0
17-08-2019 27 (10:10) 21 (00:00) 24 4.72 (13:50) 2.78 (13:40) 0 0 0 0 0
16-08-2019 32.3 (10:00) 21.3 (00:00) 26.8 4.44 (17:30) 2.78 (14:30) 0 0 0 0 0
15-08-2019 28.3 (09:30) 21.1 (00:00) 24.7 5 (15:50) 3.33 (16:00) 0 0 0 0 0
14-08-2019 27.4 (16:20) 23.5 (00:00) 25.4 5.83 (11:20) 4.72 (11:40) 0 0 0 0 0
13-08-2019 29.6 (10:10) 21.1 (00:00) 25.4 6.94 (19:50) 5.28 (19:40) 0 0 0 0 0
12-08-2019 29.5 (09:20) 19.6 (00:00) 24.6 6.94 (08:50) 3.61 (11:30) 0 0 0 0 0
11-08-2019 29.1 (15:40) 21 (00:00) 25.1 7.78 (09:20) 5.28 (09:20) 0 0 0 0 0
10-08-2019 30.9 (19:00) 20.7 (00:00) 25.8 6.11 (09:40) 4.17 (10:40) 0 0 0 0 0
09-08-2019 29.1 (18:20) 20.2 (00:00) 24.7 6.11 (14:40) 3.06 (12:50) 0 0 0 0 0
08-08-2019 28.7 (20:10) 20.8 (00:00) 24.8 6.39 (04:30) 3.61 (04:20) 0 0 0 0 0
07-08-2019 31.2 (15:00) 20.4 (00:00) 25.8 6.39 (15:20) 3.61 (15:30) 0 0 0 0 0
06-08-2019 27.9 (18:00) 21.5 (00:00) 24.7 5 (18:50) 2.78 (16:50) 0 0 0 0 0
05-08-2019 28 (18:20) 21.1 (00:00) 24.6 7.5 (12:20) 5 (11:50) 0 0 0 0 0
04-08-2019 27.2 (20:40) 22.8 (00:00) 25 6.94 (06:10) 4.44 (06:10) 0 0 0 0 0
03-08-2019 27.5 (17:20) 21.7 (00:00) 24.6 4.44 (09:20) 3.61 (09:20) 0 0 0 0 0
02-08-2019 27.3 (15:10) 22.5 (00:00) 24.9 4.44 (05:50) 3.61 (10:50) 0 0 0 0 0
01-08-2019 28.6 (15:20) 21.2 (00:00) 24.9 5.56 (16:00) 3.33 (16:10) 0 0 0 0 0
31-07-2019 28.8 (13:00) 22 (00:00) 25.4 7.78 (04:40) 5 (04:30) 0 0 0 0 0
30-07-2019 26.7 (17:30) 19.2 (00:00) 23 6.39 (21:40) 4.72 (21:40) 0 0 0 0 0
29-07-2019 27.3 (18:00) 19 (00:00) 23.1 4.17 (17:20) 2.78 (16:00) 0 0 0 0 0
28-07-2019 25.2 (00:00) 20 (00:00) 22.6 8.89 (01:00) 4.72 (15:20) 0 0 0 0 0
27-07-2019 27.6 (00:00) 22.6 (00:00) 25.1 17.78 (16:10) 10 (16:10) 0 0 0 0 0
26-07-2019 27.8 (18:10) 20 (00:00) 23.9 17.22 (19:10) 8.61 (19:10) 0 0 0 0 0

Gráficas

Temp. máximas Temp. mínimas Temp. medias Precipitaciones Rachas de viento máximas Velocidades máximas media en intervalos de 10 minutos

Datos horarios

Fecha y hora oficial Temperatura (ºC) Velocidad del viento (km/h) Dirección del viento Racha (km/h) Dirección de racha Precipitación (mm) Presión (hPa) Tendencia (hPa) Humedad (%)
2019-08-24 23:00:00 24.5 3 Nordeste 19 Este 0 1016.6 1.9 81
2019-08-24 22:00:00 25.1 12 Este 21 Este 0 1015.8 0.5 77
2019-08-24 21:00:00 25.5 16 Este 28 Este 0 1015 -0.6 71
2019-08-24 20:00:00 25.9 17 Sudeste 28 Sudeste 0 1014.7 -1.4 70
2019-08-24 19:00:00 25.8 19 Sudeste 26 Sudeste 0 1015.3 -1 81
2019-08-24 18:00:00 26.1 19 Sudeste 25 Sudeste 0 1015.6 -1.1 80
2019-08-24 17:00:00 26.4 19 Sudeste 27 Este 0 1016.1 -0.8 80
2019-08-24 16:00:00 26.4 20 Sudeste 28 Sudeste 0 1016.3 -1 77
2019-08-24 15:00:00 26.9 15 Sudeste 24 Sudeste 0 1016.7 -0.4 75
2019-08-24 14:00:00 26.6 19 Sudeste 23 Sudeste 0 1016.9 -0.2 71
2019-08-24 13:00:00 27.1 15 Sudeste 26 Sudeste 0 1017.3 0.4 69
2019-08-24 12:00:00 26.7 18 Sudeste 50 Sudeste 0 1017.1 0.5 68
2019-08-24 11:00:00 26.7 18 Sudeste 22 Sudeste 0 1017.1 1 67
2019-08-24 10:00:00 27.7 2 Sur 6 Este 0 1016.9 1.2 65
2019-08-24 09:00:00 25 2 Nordeste 6 Norte 0 1016.6 1.2 80
2019-08-24 08:00:00 21.1 0 Calma 6 Nordeste 0 1016.1 0.4 91
2019-08-24 07:00:00 21.1 0 Calma 4 Norte 0 1015.7 -0.6 91
2019-08-24 06:00:00 21.7 2 Norte 5 Norte 0 1015.4 -1 90
2019-08-24 05:00:00 21.8 0 Calma 6 Nordeste 0 1015.7 -1.1 90
2019-08-24 04:00:00 22.1 4 Nordeste 9 Nordeste 0 1016.3 -0.4 89
2019-08-24 03:00:00 22.4 3 Nordeste 6 Nordeste 0 1016.4 -0.5 89
2019-08-24 02:00:00 23 2 Norte 6 Este 0 1016.8 -0.1 88
2019-08-24 01:00:00 23.3 2 Este 7 Noroeste 0 1016.7 0.4 88
2019-08-24 00:00:00 24 2 Noroeste 6 Norte 0 1016.9 1.1 87
2019-08-23 23:00:00 24 0 Calma 9 Nordeste 0 1016.9 1.2 86
2019-08-23 22:00:00 24.9 9 Este 22 Sudeste 0 1016.3 0.7 81
2019-08-23 21:00:00 24.7 10 Sudoeste 16 Sur 0 1015.8 0 85
2019-08-23 20:00:00 25.7 11 Sudeste 21 Sur 0 1015.7 -0.2 81
2019-08-23 19:00:00 26 16 Sur 26 Sudeste 0 1015.6 -0.8 76
2019-08-23 18:00:00 26.7 17 Sudeste 29 Sudeste 0 1015.8 -1 74
2019-08-23 17:00:00 26.7 21 Sudeste 29 Sur 0 1015.9 -1.3 71
2019-08-23 16:00:00 26.8 22 Sudeste 30 Sur 0 1016.4 -0.8 69
2019-08-23 15:00:00 26.3 16 Sur 23 Sudeste 0 1016.8 -0.5 71
2019-08-23 14:00:00 27.4 20 Sudeste 30 Sudeste 0 1017.2 -0.1 62
2019-08-23 13:00:00 26.9 15 Sur 24 Sudoeste 0 1017.2 0 67
2019-08-23 12:00:00 27.1 10 Sur 15 Sur 0 1017.3 0.8 56
2019-08-23 11:00:00 27.2 6 Sudoeste 12 Sur 0 1017.3 1 59
2019-08-23 10:00:00 27.3 4 Sur 6 Sur 0 1017.2 1.2 63
2019-08-23 09:00:00 25 3 Nordeste 6 Nordeste 0 1016.5 0.4 77
2019-08-23 08:00:00 21.2 2 Norte 7 Nordeste 0 1016.3 0.2 94
2019-08-23 07:00:00 21.2 5 Norte 7 Nordeste 0 1016 0 95
2019-08-23 06:00:00 21.9 3 Nordeste 6 Nordeste 0 1016.1 -0.3 95
2019-08-23 05:00:00 22.1 3 Nordeste 5 Nordeste 0 1016.1 -0.6 95
2019-08-23 04:00:00 22.2 0 Calma 5 Nordeste 0 1016 -0.8 94
2019-08-23 03:00:00 22.5 2 Nordeste 6 Este 0 1016.4 -0.7 94
2019-08-23 02:00:00 23.2 3 Nordeste 6 Noroeste 0 1016.7 -0.7 94
2019-08-23 01:00:00 23.6 4 Noroeste 7 Norte 0 1016.8 0.1 94
2019-08-23 00:00:00 24 2 Nordeste 8 Oeste 0 1017.1 1.2 91
2019-08-22 23:00:00 24.4 3 Oeste 14 Sudeste 0 1017.4 1.8 91
2019-08-22 22:00:00 24.8 13 Sudeste 21 Sudeste 0 1016.7 1 89
2019-08-22 21:00:00 25 15 Sudeste 23 Este 0 1015.9 0.1 86
2019-08-22 20:00:00 25.7 14 Sudeste 23 Sudeste 0 1015.6 -0.4 84
2019-08-22 19:00:00 25.7 12 Sudeste 29 Este 0 1015.7 -1 85
2019-08-22 18:00:00 26 20 Sudeste 35 Este 0 1015.8 -1.1 82
2019-08-22 17:00:00 26.9 24 Este 36 Sudeste 0 1016 -1 75
2019-08-22 16:00:00 26.8 20 Sudeste 33 Sudeste 0 1016.7 -0.8 76
2019-08-22 15:00:00 26.3 24 Sudeste 40 Sudeste 0 1016.9 -0.7 77
2019-08-22 14:00:00 26.6 27 Sudeste 40 Sudeste 0 1017 -0.4 75
2019-08-22 13:00:00 27 24 Sudeste 31 Este 0 1017.5 0.3 66
2019-08-22 12:00:00 26.9 21 Sudeste 26 Sudeste 0 1017.6 0.5 65
2019-08-22 11:00:00 27 15 Sudeste 21 Sudeste 0 1017.4 0.9 69
2019-08-22 10:00:00 27.2 4 Sur 9 Sur 0 1017.2 0.7 66
2019-08-22 09:00:00 26.8 0 Calma 7 Este 0 1017.1 0.8 75
2019-08-22 08:00:00 24.3 2 Noroeste 6 Norte 0 1016.5 -0.1 84
2019-08-22 07:00:00 23.9 3 Nordeste 8 Este 0 1016.5 -0.2 85
2019-08-22 06:00:00 24.5 2 Noroeste 7 Noroeste 0 1016.3 -1 88
2019-08-22 05:00:00 24.3 6 Oeste 12 Oeste 0 1016.6 -1.1 88
2019-08-22 04:00:00 24.2 4 Noroeste 9 Oeste 0 1016.7 -1.1 91
2019-08-22 03:00:00 24.3 0 Calma 8 Sudoeste 0 1017.3 -0.1 90
2019-08-22 02:00:00 24.3 4 Sudoeste 9 Sudoeste 0 1017.7 0.5 91
2019-08-22 01:00:00 24.7 4 Sur 8 Sur 0 1017.8 1.2 90
2019-08-22 00:00:00 24.7 4 Sur 10 Sudeste 0 1017.4 1.6 89
2019-08-21 23:00:00 24.9 9 Sudeste 13 Sudeste 0 1017.2 1.8 89
2019-08-21 22:00:00 25.1 12 Sudeste 17 Sudeste 0 1016.6 1.5 87
2019-08-21 21:00:00 25.3 14 Sudeste 20 Sudeste 0 1015.8 1 85
2019-08-21 20:00:00 25.6 11 Sudeste 21 Sudeste 0 1015.4 0.2 85
2019-08-21 19:00:00 25.6 19 Sudeste 26 Sudeste 0 1015.1 -0.6 84
2019-08-21 18:00:00 26.3 19 Sudeste 24 Sudeste 0 1014.8 -1 80
2019-08-21 17:00:00 26.2 17 Sudeste 23 Sudeste 0 1015.2 -1 79
2019-08-21 16:00:00 27.5 15 Sudeste 26 Sudeste 0 1015.7 -0.6 77
2019-08-21 15:00:00 27.2 21 Sudeste 36 Este 0 1015.8 -0.6 77
2019-08-21 14:00:00 27.2 21 Sudeste 33 Sudeste 0 1016.2 0 77
2019-08-21 13:00:00 27.4 17 Sudeste 25 Sudeste 0 1016.3 0.5 77
2019-08-21 12:00:00 26.8 14 Sudeste 20 Sudeste 0 1016.4 0.9 77
2019-08-21 11:00:00 26 8 Sudoeste 13 Sudoeste 0 1016.2 0.6 85
2019-08-21 10:00:00 26.2 3 Oeste 9 Oeste 0 1015.8 0.5 81
2019-08-21 09:00:00 25.8 2 Oeste 7 Noroeste 0 1015.5 0.2 85
2019-08-21 08:00:00 24.2 3 Norte 12 Oeste 0 1015.6 0.9 93
2019-08-21 07:00:00 23.4 5 Este 7 Este 0 1015.3 0.2 91
2019-08-21 06:00:00 23.9 0 Calma 4 Norte 0 1015.3 -0.2 91
2019-08-21 05:00:00 24.1 0 Calma 5 Este 0 1014.7 -0.9 90
2019-08-21 04:00:00 24.1 0 Calma 9 Noroeste 0 1015.1 -0.8 90
2019-08-21 03:00:00 24.8 5 Noroeste 10 Noroeste 0 1015.5 -0.4 90
2019-08-21 02:00:00 24.8 3 Noroeste 11 Este 0 1015.6 0.3 89
2019-08-21 01:00:00 25.2 8 Sudeste 23 Este 0 1015.9 1.5 89
2019-08-21 00:00:00 25.5 14 Este 25 Sudeste 0 1015.9 2.3 87
2019-08-20 23:00:00 25 6 Oeste 15 Noroeste 0 1015.3 1.8 89
2019-08-20 22:00:00 25 7 Noroeste 14 Noroeste 0 1014.4 0.9 89
2019-08-20 21:00:00 25.4 8 Sudeste 21 Sudeste 0 1013.6 0.3 87
2019-08-20 20:00:00 25.1 11 Sudoeste 23 Oeste 0 1013.5 -0.3 91
2019-08-20 19:00:00 25.4 13 Sudoeste 28 Sur 0 1013.5 -0.5 91
2019-08-20 18:00:00 25.1 17 Sur 26 Sur 0 1013.3 -0.8 91
2019-08-20 17:00:00 24.7 17 Sur 24 Sudeste 0 1013.8 0 91
2019-08-20 16:00:00 26.1 17 Sudeste 24 Sur 0 1014 -0.2 86
2019-08-20 15:00:00 26.2 19 Sudeste 28 Sudeste 0 1014.1 -0.2 86
2019-08-20 14:00:00 26.4 19 Sudeste 27 Sudeste 0 1013.8 0.1 84
2019-08-20 13:00:00 26.2 21 Sudeste 32 Sudeste 0 1014.2 0.5 82
2019-08-20 12:00:00 26.4 22 Sudeste 31 Sudeste 0 1014.3 1 77
2019-08-20 11:00:00 27.6 16 Sudeste 21 Sudeste 0 1013.7 0.9 70
2019-08-20 10:00:00 27.3 3 Sur 8 Sur 0 1013.7 1.6 68
2019-08-20 09:00:00 25.5 0 Calma 8 Noroeste 0 1013.3 1.4 70
2019-08-20 08:00:00 20.8 3 Norte 6 Noroeste 0 1012.8 0.9 77
2019-08-20 07:00:00 20.4 0 Calma 6 Este 0 1012.1 0.3 88
2019-08-20 06:00:00 21.2 0 Calma 6 Norte 0 1011.9 -0.2 90
2019-08-20 05:00:00 21.7 0 Calma 10 Oeste 0 1011.9 -0.7 89
2019-08-20 04:00:00 21.6 5 Noroeste 8 Noroeste 0 1011.8 -0.8 95
2019-08-20 03:00:00 22 2 Norte 8 Oeste 0 1012.1 -0.1 98
2019-08-20 02:00:00 22.8 5 Noroeste 11 Noroeste 0 1012.6 0.7 99
2019-08-20 01:00:00 23.1 3 Noroeste 7 Noroeste 0 1012.6 1.4 99
2019-08-20 00:00:00 23.6 4 Sur 16 Sudeste 0 1012.2 1.5 99
2019-08-19 23:00:00 24 6 Sudeste 9 Sudeste 0 1011.9 2.1 96
2019-08-19 22:00:00 24.4 4 Sur 10 Sudoeste 0 1011.2 0.5 91
2019-08-19 21:00:00 25 7 Sudoeste 11 Sudoeste 0 1010.7 -0.4 86
2019-08-19 20:00:00 26.6 8 Sudoeste 14 Sudoeste 0 1009.8 -1.6 74
2019-08-19 19:00:00 30.4 5 Oeste 13 Oeste 0 1010.7 -1.1 43
2019-08-19 18:00:00 29.2 5 Sur 15 Sudoeste 0 1011.1 -1 57
2019-08-19 17:00:00 26.8 9 Sudoeste 18 Sudoeste 0 1011.4 -0.6 74
2019-08-19 16:00:00 25.8 9 Sur 17 Sudoeste 0 1011.8 -0.6 85
2019-08-19 15:00:00 25.9 9 Sur 17 Sudoeste 0 1012.1 -0.3 85
2019-08-19 14:00:00 27.4 6 Sur 13 Sudoeste 0 1012 -0.3 77
2019-08-19 13:00:00 24.7 10 Sudoeste 16 Sur 0 1012.4 0.5 89
2019-08-19 12:00:00 27 6 Sur 15 Sudeste 0 1012.4 0.9 75
2019-08-19 11:00:00 27 6 Sudeste 10 Sur 0 1012.3 1.2 72
2019-08-19 10:00:00 27.8 4 Sudeste 5 Sur 0 1011.9 1.2 71
2019-08-19 09:00:00 23.3 2 Nordeste 5 Sur 0 1011.5 0.9 94
2019-08-19 08:00:00 22 3 Sudoeste 6 Sudoeste 0 1011.1 0.5 99
2019-08-19 07:00:00 21.8 3 Sudoeste 8 Sudoeste 0 1010.7 0.1 99
2019-08-19 06:00:00 21.8 0 Calma 6 Norte 0 1010.6 -0.6 97
2019-08-19 05:00:00 22.4 3 Sudoeste 9 Oeste 0 1010.6 -0.7 96
2019-08-19 04:00:00 22.3 3 Oeste 11 Oeste 0 1010.6 -0.4 96
2019-08-19 03:00:00 22.6 4 Sudoeste 25 Sur 0 1011.2 -0.2 96
2019-08-19 02:00:00 22.9 3 Sur 12 Sur 0 1011.3 0.4 95
2019-08-19 01:00:00 23.1 0 Calma 5 Nordeste 0 1011 1.2 95
2019-08-19 00:00:00 23.4 3 Nordeste 9 Sudoeste 0 1011.4 1.4 94
2019-08-18 23:00:00 24.8 5 Sur 8 Sudoeste 0 1010.9 0.6 81
2019-08-18 22:00:00 25 2 Noroeste 8 Sur 0 1009.8 -0.9 77
2019-08-18 21:00:00 26.1 4 Sudoeste 11 Sudoeste 0 1010 -0.9 69
2019-08-18 20:00:00 27.7 5 Sudoeste 13 Oeste 0 1010.3 -0.9 53
2019-08-18 19:00:00 28.2 6 Oeste 14 Oeste 0 1010.7 -1.2 49
2019-08-18 18:00:00 27 7 Sudoeste 17 Sudoeste 0 1010.9 -1.6 66
2019-08-18 17:00:00 25.3 9 Sur 19 Sur 0 1011.2 -1.5 87
2019-08-18 16:00:00 24.9 11 Sudoeste 18 Sur 0 1011.9 -0.7 89
2019-08-18 15:00:00 25.2 10 Sur 15 Sudoeste 0 1012.5 -0.4 89
2019-08-18 14:00:00 25.9 8 Sur 17 Sur 0 1012.7 0 84
2019-08-18 13:00:00 25.1 9 Sur 14 Sudoeste 0 1012.6 0.5 86
2019-08-18 12:00:00 26 6 Sur 14 Sur 0 1012.9 1.7 84
2019-08-18 11:00:00 24.2 8 Sur 13 Sur 0 1012.7 2 89
2019-08-18 10:00:00 23 6 Sudoeste 15 Oeste 0 1012.1 2.1 95
2019-08-18 09:00:00 25.4 0 Calma 6 Norte 0 1011.2 1.4 74
2019-08-18 08:00:00 22.3 3 Norte 9 Oeste 0 1010.7 0.7 82
2019-08-18 07:00:00 22.1 3 Sur 6 Sudoeste 0 1010 -0.6 88
2019-08-18 06:00:00 21.2 4 Noroeste 6 Norte 0 1009.8 -1.5 93
2019-08-18 05:00:00 21.4 0 Calma 5 Noroeste 0 1010 -2.3 95
2019-08-18 04:00:00 22.1 0 Calma 4 Norte 0 1010.6 -1.8 95
2019-08-18 03:00:00 22.4 0 Calma 8 Norte 0 1011.3 -1.3 95
2019-08-18 02:00:00 23.2 3 Sur 4 Sudoeste 0 1012.3 0.2 95
2019-08-18 01:00:00 23 0 Calma 6 Norte 0 1012.4 0.8 95
2019-08-18 00:00:00 23.3 0 Calma 5 Nordeste 0 1012.6 1.4 95
2019-08-17 23:00:00 23.7 0 Calma 6 Oeste 0 1012.1 0.5 94
2019-08-17 22:00:00 24.1 3 Noroeste 10 Oeste 0 1011.6 -0.3 94
2019-08-17 21:00:00 24.5 5 Oeste 12 Oeste 0 1011.2 -1.2 90
2019-08-17 20:00:00 25 7 Sudoeste 15 Sudoeste 0 1011.6 -1.6 86
2019-08-17 19:00:00 26.4 6 Oeste 16 Sur 0 1011.9 -1.4 84
2019-08-17 18:00:00 26.4 8 Sudoeste 15 Sudoeste 0 1012.4 -1.6 85
2019-08-17 17:00:00 26.6 9 Sudoeste 16 Sudoeste 0 1013.2 -1.2 83
2019-08-17 16:00:00 26.6 9 Sur 14 Sudoeste 0 1013.3 -1.6 83
2019-08-17 15:00:00 25.9 9 Sur 16 Sudoeste 0 1014 -1 85
2019-08-17 14:00:00 26 10 Sur 17 Sudoeste 0 1014.4 -0.4 85
2019-08-17 13:00:00 26 7 Sur 13 Sur 0 1014.9 0 84
2019-08-17 12:00:00 25.7 7 Sur 13 Sudoeste 0 1015 0.3 85
2019-08-17 11:00:00 25.8 5 Sur 9 Sur 0 1014.8 1 84
2019-08-17 10:00:00 26.9 3 Sudeste 4 Sudeste 0 1014.9 1.4 83
2019-08-17 09:00:00 23.3 0 Calma 5 Norte 0 1014.7 0.8 84
2019-08-17 08:00:00 21.4 4 Norte 5 Nordeste 0 1013.8 -0.6 88
2019-08-17 07:00:00 21.1 0 Calma 6 Nordeste 0 1013.5 -1 88
2019-08-17 06:00:00 21.7 0 Calma 5 Noroeste 0 1013.9 -0.9 88
2019-08-17 05:00:00 22.1 0 Calma 7 Noroeste 0 1014.4 -1 88
2019-08-17 04:00:00 22.9 5 Este 9 Este 0 1014.5 -1.2 85
2019-08-17 03:00:00 22.1 2 Nordeste 5 Nordeste 0 1014.8 -0.5 90
2019-08-17 02:00:00 23.2 3 Noroeste 5 Norte 0 1015.4 0.1 89
2019-08-17 01:00:00 23.3 3 Nordeste 6 Nordeste 0 1015.7 1 89
2019-08-17 00:00:00 23.7 3 Nordeste 5 Sudeste 0 1015.3 0.9 88
2019-08-16 23:00:00 24.6 2 Noroeste 5 Noroeste 0 1015.3 1.1 85
2019-08-16 22:00:00 24.9 3 Oeste 7 Noroeste 0 1014.7 0.2 81
2019-08-16 21:00:00 25.7 5 Sudoeste 10 Sudoeste 0 1014.4 -0.6 77
2019-08-16 20:00:00 26.4 5 Sudoeste 12 Sudoeste 0 1014.2 -1.2 77
2019-08-16 19:00:00 26.7 6 Sudoeste 14 Sur 0 1014.5 -1.6 75
2019-08-16 18:00:00 27 8 Sudoeste 16 Sur 0 1015 -1.5 71
2019-08-16 17:00:00 26.7 8 Sudoeste 15 Sur 0 1015.4 -1.2 70
2019-08-16 16:00:00 25.9 9 Sur 15 Sudoeste 0 1016.1 -0.5 76
2019-08-16 15:00:00 27.2 8 Sur 15 Sudoeste 0 1016.5 -0.1 76
2019-08-16 14:00:00 27.3 7 Sur 13 Sur 0 1016.6 0.2 62
2019-08-16 13:00:00 27.9 9 Sudoeste 13 Sur 0 1016.6 0.3 53
2019-08-16 12:00:00 29.5 5 Sudeste 12 Sudeste 0 1016.6 0.2 54
2019-08-16 11:00:00 28.6 5 Sur 7 Sur 0 1016.4 0.3 54
2019-08-16 10:00:00 32.3 0 Calma 4 Nordeste 0 1016.3 1.1 47
2019-08-16 09:00:00 27.8 0 Calma 4 Nordeste 0 1016.4 1.3 56
2019-08-16 08:00:00 22.1 2 Noroeste 9 Norte 0 1016.1 1.1 70
2019-08-16 07:00:00 21.8 3 Nordeste 7 Norte 0 1015.2 -0.2 73
2019-08-16 06:00:00 22 3 Norte 6 Norte 0 1015.1 -0.8 77
2019-08-16 05:00:00 21.9 0 Calma 5 Nordeste 0 1015 -1.1 81
2019-08-16 04:00:00 22.2 0 Calma 6 Nordeste 0 1015.4 -0.7 84
2019-08-16 03:00:00 22 0 Calma 2 Norte 0 1015.9 0 89
2019-08-16 02:00:00 22.9 0 Calma 4 Nordeste 0 1016.1 0.2 91
2019-08-16 01:00:00 23.1 0 Calma 5 Sur 0 1016.1 0.6 92
2019-08-16 00:00:00 24.1 0 Calma 3 Norte 0 1015.9 0.7 85
2019-08-15 23:00:00 24.5 0 Calma 4 Sudoeste 0 1015.9 0.9 77
2019-08-15 22:00:00 25.4 4 Sudoeste 6 Sudoeste 0 1015.5 0.3 77
2019-08-15 21:00:00 25.9 0 Calma 12 Sudoeste 0 1015.2 -0.3 74
2019-08-15 20:00:00 26.2 7 Sudoeste 14 Sudoeste 0 1015 -0.7 75
2019-08-15 19:00:00 27.4 5 Sudoeste 15 Sur 0 1015.2 -0.8 68
2019-08-15 18:00:00 26.2 10 Sudoeste 17 Sudoeste 0 1015.5 -1 77
2019-08-15 17:00:00 26.6 8 Sudoeste 16 Sudoeste 0 1015.7 -1 76
2019-08-15 16:00:00 25.6 12 Sudoeste 18 Sur 0 1016 -0.9 82
2019-08-15 15:00:00 26.7 8 Sudoeste 17 Sudoeste 0 1016.5 -0.3 76
2019-08-15 14:00:00 25.8 10 Sudoeste 17 Sudoeste 0 1016.7 0.1 82
2019-08-15 13:00:00 25.7 10 Sudoeste 13 Sudoeste 0 1016.9 0.2 81
2019-08-15 12:00:00 26.7 9 Sur 13 Sur 0 1016.8 0.8 73
2019-08-15 11:00:00 27.1 7 Sur 9 Sur 0 1016.6 0.8 69
2019-08-15 10:00:00 26.2 4 Sudoeste 9 Sur 0 1016.7 1 73
2019-08-15 09:00:00 26.8 0 Calma 5 Nordeste 0 1016 0.4 76
2019-08-15 08:00:00 21.5 2 Nordeste 5 Nordeste 0 1015.8 0.1 94
2019-08-15 07:00:00 21.6 2 Nordeste 4 Norte 0 1015.7 -0.3 95
2019-08-15 06:00:00 21.7 3 Norte 5 Norte 0 1015.6 -0.5 95
2019-08-15 05:00:00 21.8 0 Calma 6 Norte 0 1015.7 -0.9 94
2019-08-15 04:00:00 22 3 Norte 5 Nordeste 0 1016 -1 94
2019-08-15 03:00:00 22.5 3 Este 4 Este 0 1016.1 -0.9 94
2019-08-15 02:00:00 22.8 0 Calma 4 Este 0 1016.6 -0.3 93
2019-08-15 01:00:00 23.1 0 Calma 4 Norte 0 1017 0.9 94
2019-08-15 00:00:00 23.5 0 Calma 4 Sudoeste 0 1017 1.3 92
2019-08-14 23:00:00 24.3 3 Sur 5 Sudoeste 0 1016.9 1.5 90
2019-08-14 22:00:00 24.6 3 Oeste 6 Sur 0 1016.1 0.4 86
2019-08-14 21:00:00 25.1 4 Sur 10 Sudoeste 0 1015.7 -0.5 84
2019-08-14 20:00:00 25.7 6 Sudoeste 12 Sur 0 1015.4 -1.5 84
2019-08-14 19:00:00 26.4 6 Sur 11 Sur 0 1015.7 -1.3 81
2019-08-14 18:00:00 25.7 7 Sur 12 Sur 0 1016.2 -1.3 82
2019-08-14 17:00:00 26.2 8 Sur 13 Sur 0 1016.9 -1 79
2019-08-14 16:00:00 26.9 8 Sur 16 Sur 0 1017 -1.3 77
2019-08-14 15:00:00 26.8 9 Sur 16 Sudeste 0 1017.5 -1 76
2019-08-14 14:00:00 26.9 12 Sudeste 17 Sudeste 0 1017.9 -0.1 76
2019-08-14 13:00:00 26.7 11 Sudeste 17 Sudeste 0 1018.3 0.3 76
2019-08-14 12:00:00 26.5 14 Sudeste 21 Sudeste 0 1018.5 0.7 76
2019-08-14 11:00:00 26.4 15 Sudeste 18 Sudeste 0 1018 0.5 76
2019-08-14 10:00:00 26 7 Sur 10 Sur 0 1018 0.6 80
2019-08-14 09:00:00 25.7 3 Sur 6 Sudoeste 0 1017.8 0.5 88
2019-08-14 08:00:00 23.6 5 Este 11 Sudeste 0 1017.5 0.4 95
2019-08-14 07:00:00 23.7 6 Sudeste 12 Sudeste 0 1017.4 0.3 95
2019-08-14 06:00:00 23.6 7 Sudeste 12 Sudeste 0 1017.3 -0.1 96
2019-08-14 05:00:00 23.9 10 Sudeste 13 Sudeste 0 1017.1 -0.5 95
2019-08-14 04:00:00 24.5 8 Sudeste 12 Este 0 1017.1 -0.3 91
2019-08-14 03:00:00 24.8 9 Este 14 Este 0 1017.4 0.2 91
2019-08-14 02:00:00 25.2 7 Este 13 Este 0 1017.6 0.7 89
2019-08-14 01:00:00 25 8 Este 15 Este 0 1017.4 1.2 89
2019-08-14 00:00:00 25.3 9 Este 20 Este 0 1017.2 1.6 88
2019-08-13 23:00:00 25.4 8 Este 17 Este 0 1016.9 1.5 87
2019-08-13 22:00:00 25.6 3 Oeste 18 Sudeste 0 1016.2 1.1 87
2019-08-13 21:00:00 25.7 14 Sudeste 22 Sudeste 0 1015.6 0.1 86
2019-08-13 20:00:00 26.7 17 Sudeste 25 Sudeste 0 1015.4 -0.4 82
2019-08-13 19:00:00 26.5 14 Sur 21 Sur 0 1015.1 -0.9 77
2019-08-13 18:00:00 27.1 7 Sur 18 Sur 0 1015.5 -0.6 72
2019-08-13 17:00:00 27.5 9 Sudoeste 17 Sudoeste 0 1015.8 -0.2 71
2019-08-13 16:00:00 26.1 11 Sur 18 Sudoeste 0 1016 0.2 77
2019-08-13 15:00:00 28.4 10 Sudoeste 19 Sudoeste 0 1016.1 0.5 66
2019-08-13 14:00:00 27.1 11 Sudoeste 18 Sudoeste 0 1016 0.6 68
2019-08-13 13:00:00 28.7 7 Sudoeste 21 Oeste 0 1015.8 0.6 63
2019-08-13 12:00:00 27.2 10 Sudoeste 21 Oeste 0 1015.6 0.9 71
2019-08-13 11:00:00 26.7 10 Sudoeste 18 Sudoeste 0 1015.4 1.1 68
2019-08-13 10:00:00 28.2 2 Sur 6 Sur 0 1015.2 0.9 59
2019-08-13 09:00:00 27.7 0 Calma 8 Norte 0 1014.7 0.6 64
2019-08-13 08:00:00 21.5 0 Calma 6 Norte 0 1014.3 0.6 77
2019-08-13 07:00:00 21.5 0 Calma 5 Sudeste 0 1014.3 0.7 80
2019-08-13 06:00:00 21.9 0 Calma 7 Nordeste 0 1014.1 0 77
2019-08-13 05:00:00 22.9 3 Noroeste 10 Noroeste 0 1013.7 -0.9 76
2019-08-13 04:00:00 22 3 Noroeste 8 Sur 0 1013.6 -1.1 82
2019-08-13 03:00:00 23.6 5 Sudoeste 9 Sudoeste 0 1014.1 -0.5 66
2019-08-13 02:00:00 23.5 5 Oeste 15 Este 0 1014.6 0.4 71
2019-08-13 01:00:00 25.4 6 Nordeste 17 Este 0 1014.7 1.6 77
2019-08-13 00:00:00 24.4 0 Calma 14 Este 0 1014.6 2.1 71
2019-08-12 23:00:00 23.1 2 Oeste 8 Oeste 0 1014.2 2.6 71
2019-08-12 22:00:00 23.7 4 Oeste 8 Oeste 0 1013.1 1.8 71
2019-08-12 21:00:00 24 4 Sudoeste 9 Sudoeste 0 1012.5 0.9 70
2019-08-12 20:00:00 25.1 6 Sudoeste 17 Sur 0 1011.6 -0.5 70
2019-08-12 19:00:00 24.5 7 Sudoeste 13 Sudoeste 0 1011.3 -1.2 73
2019-08-12 18:00:00 25.1 4 Sur 14 Sur 0 1011.6 -1 72
2019-08-12 17:00:00 24.9 4 Sur 12 Sudoeste 0 1012.1 -0.8 76
2019-08-12 16:00:00 25 6 Sur 11 Sur 0 1012.5 -0.8 70
2019-08-12 15:00:00 24.5 5 Sur 11 Sudoeste 0 1012.6 -0.1 65
2019-08-12 14:00:00 26.1 4 Sur 11 Sudoeste 0 1012.9 1.2 64
2019-08-12 13:00:00 24 7 Sudoeste 17 Sur 0 1013.3 1.9 69
2019-08-12 12:00:00 24.8 10 Sur 22 Sudeste 0 1012.7 1.8 67
2019-08-12 11:00:00 25.3 9 Sudoeste 21 Oeste 0 1011.7 1.2 61
2019-08-12 10:00:00 25 10 Oeste 23 Sudoeste 0 1011.4 1.3 64
2019-08-12 09:00:00 28.7 6 Noroeste 25 Norte 0 1010.9 1 30
2019-08-12 08:00:00 26.9 8 Noroeste 24 Noroeste 0 1010.5 0 31
2019-08-12 07:00:00 26.8 6 Noroeste 21 Noroeste 0 1010.1 -0.6 33
2019-08-12 06:00:00 24.8 2 Oeste 12 Noroeste 0 1009.9 -1.3 53
2019-08-12 05:00:00 21.6 5 Sur 13 Sur 0 1010.5 -1 91
2019-08-12 04:00:00 21.8 5 Sur 18 Sur 0 1010.7 -1.2 90
2019-08-12 03:00:00 23 10 Sur 18 Sudeste 0 1011.2 -0.7 77
2019-08-12 02:00:00 22.3 5 Sudoeste 14 Noroeste 0 1011.5 -0.3 77
2019-08-12 01:00:00 22 5 Noroeste 9 Noroeste 0 1011.9 0.6 77
2019-08-12 00:00:00 22.2 6 Noroeste 18 Oeste 0 1011.9 1.3 77
2019-08-11 23:00:00 22.8 7 Oeste 20 Oeste 0 1011.8 1.4 73
2019-08-11 22:00:00 23.9 4 Oeste 15 Oeste 0 1011.3 1 65
2019-08-11 21:00:00 25.7 6 Oeste 13 Oeste 0 1010.6 0.2 57
2019-08-11 20:00:00 25.9 6 Sudoeste 11 Sudoeste 0 1010.4 -0.7 60
2019-08-11 19:00:00 26.1 6 Sur 12 Sudoeste 0 1010.3 -1.5 57
2019-08-11 18:00:00 26.4 6 Sudeste 13 Sur 0 1010.4 -1.7 61
2019-08-11 17:00:00 26.3 9 Sur 17 Sudoeste 0 1011.1 -1.7 55
2019-08-11 16:00:00 27.8 6 Sur 14 Sudoeste 0 1011.8 -1.3 50
2019-08-11 15:00:00 28.2 4 Sudeste 15 Sur 0 1012.1 -1.2 56
2019-08-11 14:00:00 25.4 10 Sur 17 Sudoeste 0 1012.8 -0.2 62
2019-08-11 13:00:00 26.3 6 Sur 18 Sudoeste 0 1013.1 1.3 62
2019-08-11 12:00:00 26.7 7 Sudoeste 18 Oeste 0 1013.3 1.9 56
2019-08-11 11:00:00 25 7 Sur 23 Sudoeste 0 1013 1.1 70
2019-08-11 10:00:00 25.8 5 Oeste 28 Oeste 0 1011.8 0.2 71
2019-08-11 09:00:00 22.4 6 Noroeste 14 Noroeste 0 1011.4 -0.5 93
2019-08-11 08:00:00 21.4 4 Oeste 10 Oeste 0 1011.9 -0.2 99
2019-08-11 07:00:00 21.3 3 Noroeste 6 Oeste 0 1011.6 -0.9 99
2019-08-11 06:00:00 21.7 2 Norte 6 Sur 0 1011.9 -1.1 98
2019-08-11 05:00:00 22 2 Sur 8 Sur 0 1012.1 -0.7 98
2019-08-11 04:00:00 22 4 Sudeste 9 Oeste 0 1012.5 -0.7 95
2019-08-11 03:00:00 22.4 0 Calma 9 Sudeste 0 1013 -0.6 94
2019-08-11 02:00:00 23.4 0 Calma 7 Oeste 0 1012.8 -0.9 90
2019-08-11 01:00:00 22.9 4 Noroeste 18 Sudeste 0 1013.2 0.4 94
2019-08-11 00:00:00 23 12 Sudeste 19 Sudeste 0 1013.6 1.6 91
2019-08-10 23:00:00 23.6 0 Calma 7 Sudoeste 0 1013.7 2.1 85
2019-08-10 22:00:00 24.5 2 Oeste 9 Oeste 0 1012.8 0.9 82
2019-08-10 21:00:00 25.3 3 Sudoeste 11 Sur 0 1012 -0.3 77
2019-08-10 20:00:00 26.1 8 Sur 16 Oeste 0 1011.6 -1.3 73
2019-08-10 19:00:00 29.7 5 Oeste 16 Oeste 0 1011.9 -2.3 53
2019-08-10 18:00:00 28.3 6 Sudoeste 17 Sudoeste 0 1012.3 -2.3 62
2019-08-10 17:00:00 28.7 8 Oeste 17 Sudoeste 0 1012.9 -2.4 60
2019-08-10 16:00:00 27.4 10 Sudoeste 17 Sudoeste 0 1014.2 -1.3 66
2019-08-10 15:00:00 27.1 10 Sudoeste 18 Sudoeste 0 1014.6 -1.1 71
2019-08-10 14:00:00 25 12 Sudoeste 18 Sudoeste 0 1015.3 0.1 84
2019-08-10 13:00:00 25.4 7 Sudoeste 14 Sur 0 1015.5 1 77
2019-08-10 12:00:00 25 9 Sur 16 Sur 0 1015.7 3 84
2019-08-10 11:00:00 24.4 13 Sudeste 19 Este 0 1015.2 3.2 82
2019-08-10 10:00:00 26.5 2 Sur 22 Oeste 0 1014.5 2.4 75
2019-08-10 09:00:00 26 6 Sudoeste 14 Sudoeste 0 1012.7 -0.1 67
2019-08-10 08:00:00 22.6 4 Oeste 9 Sudoeste 0 1012 -1.3 85
2019-08-10 07:00:00 21 0 Calma 9 Norte 0 1012.1 -1.6 95
2019-08-10 06:00:00 21.4 0 Calma 6 Nordeste 0 1012.8 -0.7 94
2019-08-10 05:00:00 21.5 2 Nordeste 11 Noroeste 0 1013.3 -0.2 93
2019-08-10 04:00:00 22 2 Norte 9 Oeste 0 1013.7 0.3 92
2019-08-10 03:00:00 21.9 0 Calma 11 Oeste 0 1013.5 0.8 91
2019-08-10 02:00:00 22.1 3 Noroeste 10 Oeste 0 1013.5 1 91
2019-08-10 01:00:00 22.8 4 Oeste 9 Oeste 0 1013.4 1.4 88
2019-08-10 00:00:00 23.1 3 Sudoeste 9 Oeste 0 1012.7 1.2 84
2019-08-09 23:00:00 24 5 Noroeste 10 Oeste 0 1012.5 1.3 80
2019-08-09 22:00:00 24.3 2 Sur 9 Oeste 0 1012 0.7 77
2019-08-09 21:00:00 24.4 5 Sudoeste 12 Sudoeste 0 1011.5 -0.3 77
2019-08-09 20:00:00 26.9 4 Sudoeste 15 Sudoeste 0 1011.2 -1.6 65
2019-08-09 19:00:00 25.3 10 Sur 14 Sudoeste 0 1011.3 -2.5 72
2019-08-09 18:00:00 27.2 8 Sur 16 Sur 0 1011.8 -2.1 67
2019-08-09 17:00:00 27.4 8 Sudoeste 18 Sudoeste 0 1012.8 -1.4 64
2019-08-09 16:00:00 27.2 8 Oeste 22 Oeste 0 1013.8 -0.5 61
2019-08-09 15:00:00 27.3 9 Sudoeste 22 Sudoeste 0 1013.9 0.2 62
2019-08-09 14:00:00 25.2 10 Sudoeste 16 Sur 0 1014.2 1.1 77
2019-08-09 13:00:00 25 11 Sur 18 Sur 0 1014.3 1.3 81
2019-08-09 12:00:00 24.7 10 Sudoeste 15 Sudoeste 0 1013.7 1 81
2019-08-09 11:00:00 26.4 7 Oeste 15 Sudoeste 0 1013.1 0.8 64
2019-08-09 10:00:00 24.4 8 Oeste 15 Oeste 0 1013 0.6 77
2019-08-09 09:00:00 23.2 5 Noroeste 13 Noroeste 0 1012.7 0.5 83
2019-08-09 08:00:00 20.3 2 Norte 6 Norte 0 1012.3 -0.4 97
2019-08-09 07:00:00 21.8 0 Calma 6 Noroeste 0 1012.4 0.3 96
2019-08-09 06:00:00 21.4 2 Nordeste 9 Norte 0 1012.2 0 94
2019-08-09 05:00:00 22 2 Noroeste 6 Noroeste 0 1012.7 -0.3 90
2019-08-09 04:00:00 22.5 4 Sudoeste 14 Sudoeste 0 1012.1 -0.9 68
2019-08-09 03:00:00 21.9 0 Calma 6 Norte 0 1012.2 -0.8 96
2019-08-09 02:00:00 22.5 0 Calma 7 Oeste 0 1013 0.6 96
2019-08-09 01:00:00 23.6 5 Oeste 9 Oeste 0 1013 1.4 96
2019-08-09 00:00:00 23.5 4 Oeste 7 Oeste 0 1013 2.1 96
2019-08-08 23:00:00 24.3 0 Calma 9 Sudoeste 0 1012.4 1.5 95
2019-08-08 22:00:00 24.6 6 Sudoeste 11 Sudoeste 0 1011.6 0.4 95
2019-08-08 21:00:00 27 0 Calma 4 Sur 0 1010.9 -0.6 74
2019-08-08 20:00:00 28.4 2 Sur 8 Sur 0 1010.9 -0.5 69
2019-08-08 19:00:00 27.2 4 Sur 11 Sur 0 1011.2 -1 73
2019-08-08 18:00:00 26.8 5 Sur 12 Sur 0 1011.5 -0.8 81
2019-08-08 17:00:00 26.5 6 Sur 17 Sudoeste 0 1011.4 -0.8 79
2019-08-08 16:00:00 25.6 12 Sur 18 Sur 0 1012.2 -0.3 81
2019-08-08 15:00:00 26.4 8 Sur 16 Sudoeste 0 1012.3 -0.1 76
2019-08-08 14:00:00 26.1 8 Sur 14 Sudoeste 0 1012.2 -0.1 77
2019-08-08 13:00:00 26.9 4 Sur 10 Sur 0 1012.5 0.6 76
2019-08-08 12:00:00 27.5 5 Sur 12 Sudoeste 0 1012.4 1.3 73
2019-08-08 11:00:00 24.4 8 Sudoeste 15 Sudoeste 0 1012.3 1.6 86
2019-08-08 10:00:00 26.8 0 Calma 10 Sudeste 0 1011.9 1.9 71
2019-08-08 09:00:00 23.2 0 Calma 6 Noroeste 0 1011.1 1.6 89
2019-08-08 08:00:00 21 2 Noroeste 7 Sur 0 1010.7 1.2 96
2019-08-08 07:00:00 21.4 0 Calma 6 Norte 0 1010 0.8 96
2019-08-08 06:00:00 22 0 Calma 9 Sudoeste 0 1009.5 -0.2 94
2019-08-08 05:00:00 22.8 3 Sudoeste 23 Sudeste 0 1009.5 -0.5 91
2019-08-08 04:00:00 22.1 0 Calma 8 Sudoeste 0 1009.2 -1.2 90
2019-08-08 03:00:00 22.2 2 Sur 8 Sudoeste 0 1009.7 -0.6 91
2019-08-08 02:00:00 23 5 Norte 11 Sudeste 0 1010 -0.3 88
2019-08-08 01:00:00 23.5 0 Calma 7 Noroeste 0 1010.4 0.9 83
2019-08-08 00:00:00 24.2 2 Sudoeste 6 Sudoeste 0 1010.3 1.5 78
2019-08-07 23:00:00 25 2 Sudeste 8 Este 0 1010.3 1.8 74
2019-08-07 22:00:00 26 0 Calma 14 Oeste 0 1009.5 0.7 71
2019-08-07 21:00:00 26.7 4 Oeste 12 Oeste 0 1008.8 -0.3 67
2019-08-07 20:00:00 26.4 0 Calma 9 Sur 0 1008.5 -0.7 69
2019-08-07 19:00:00 27.5 6 Sur 12 Sur 0 1008.8 -0.9 58
2019-08-07 18:00:00 28.7 7 Sudeste 13 Sudeste 0 1009.1 -0.8 53
2019-08-07 17:00:00 29.6 4 Sur 18 Sudoeste 0 1009.2 -1 51
2019-08-07 16:00:00 29.7 6 Sudeste 23 Oeste 0 1009.7 -0.7 53
2019-08-07 15:00:00 31.2 4 Oeste 15 Oeste 0 1009.9 -0.3 49
2019-08-07 14:00:00 26.5 10 Sur 20 Oeste 0 1010.2 0.3 67
2019-08-07 13:00:00 27 6 Oeste 19 Sudoeste 0 1010.4 0.2 62
2019-08-07 12:00:00 27.4 7 Oeste 18 Oeste 0 1010.2 0.2 62
2019-08-07 11:00:00 25.6 8 Oeste 15 Oeste 0 1009.9 0.5 70
2019-08-07 10:00:00 26 4 Sur 9 Sudoeste 0 1010.2 1.3 77
2019-08-07 09:00:00 24.2 4 Sudoeste 6 Sudoeste 0 1010 1.5 86
2019-08-07 08:00:00 21.7 0 Calma 7 Norte 0 1009.4 1 89
2019-08-07 07:00:00 21.1 5 Norte 10 Nordeste 0 1008.9 -0.2 86
2019-08-07 06:00:00 22.4 0 Calma 6 Sudoeste 0 1008.5 -0.3 83
2019-08-07 05:00:00 22.1 4 Nordeste 9 Sudoeste 0 1008.4 -0.9 81
2019-08-07 04:00:00 22.9 2 Sudoeste 9 Noroeste 0 1009.1 -0.5 77
2019-08-07 03:00:00 23.4 2 Oeste 15 Sudoeste 0 1008.8 -1.3 75
2019-08-07 02:00:00 24 4 Sudoeste 12 Sudoeste 0 1009.3 -1.1 75
2019-08-07 01:00:00 23.3 2 Norte 7 Nordeste 0 1009.6 -0.8 82
2019-08-07 00:00:00 24.5 3 Sudoeste 12 Oeste 0 1010.1 0.4 77
2019-08-06 23:00:00 25 8 Oeste 13 Oeste 0 1010.4 1.5 77
2019-08-06 22:00:00 25.8 2 Oeste 11 Sudoeste 0 1010.4 1.9 71
2019-08-06 21:00:00 26.6 6 Sudoeste 12 Oeste 0 1009.7 0.8 61
2019-08-06 20:00:00 27.1 4 Sudeste 15 Oeste 0 1008.9 -0.9 73
2019-08-06 19:00:00 27.5 8 Oeste 18 Oeste 0 1008.5 -1.9 66
2019-08-06 18:00:00 27.3 10 Sudoeste 15 Sudoeste 0 1008.9 -2.1 71
2019-08-06 17:00:00 26.1 10 Sur 15 Sur 0 1009.8 -1.9 76
2019-08-06 16:00:00 26.3 8 Sur 13 Sur 0 1010.4 -1.4 77
2019-08-06 15:00:00 26.9 6 Sur 13 Sudoeste 0 1011 -1.3 73
2019-08-06 14:00:00 25.1 9 Sur 13 Sur 0 1011.7 -0.4 82
2019-08-06 13:00:00 25.8 8 Sur 13 Sur 0 1011.8 -0.4 77
2019-08-06 12:00:00 25.4 8 Sur 14 Sudeste 0 1012.3 0.9 79
2019-08-06 11:00:00 26.5 9 Sudeste 12 Sudeste 0 1012.1 0.4 73
2019-08-06 10:00:00 26.9 5 Sudeste 8 Sudeste 0 1012.2 0.7 73
2019-08-06 09:00:00 23.9 3 Nordeste 11 Norte 0 1011.4 0.3 91
2019-08-06 08:00:00 21.7 3 Nordeste 8 Nordeste 0 1011.7 0 98
2019-08-06 07:00:00 22 4 Este 8 Sur 0 1011.5 -0.4 98
2019-08-06 06:00:00 22.1 0 Calma 9 Oeste 0 1011.1 -0.8 96
2019-08-06 05:00:00 22.6 6 Oeste 10 Oeste 0 1011.7 -1 96
2019-08-06 04:00:00 22.5 0 Calma 6 Noroeste 0 1011.9 -0.8 96
2019-08-06 03:00:00 22.9 3 Noroeste 10 Oeste 0 1011.9 -0.8 96
2019-08-06 02:00:00 23 3 Noroeste 8 Sudoeste 0 1012.7 0.2 95
2019-08-06 01:00:00 23.7 3 Sudoeste 7 Sudoeste 0 1012.7 1.2 94
2019-08-06 00:00:00 23.9 0 Calma 6 Noroeste 0 1012.7 1.8 92
2019-08-05 23:00:00 24 2 Sudoeste 6 Sur 0 1012.5 2.3 91
2019-08-05 22:00:00 24.4 3 Sudoeste 10 Sur 0 1011.5 1 89
2019-08-05 21:00:00 25.9 2 Oeste 15 Oeste 0 1010.9 0.1 76
2019-08-05 20:00:00 26.3 8 Oeste 17 Oeste 0 1010.2 -1.2 67
2019-08-05 19:00:00 27.5 7 Oeste 15 Sudoeste 0 1010.5 -1.5 61
2019-08-05 18:00:00 27.3 9 Sudoeste 17 Sudoeste 0 1010.8 -1.7 67
2019-08-05 17:00:00 26.3 10 Sur 16 Sudoeste 0 1011.4 -1.8 73
2019-08-05 16:00:00 26.6 8 Sur 13 Sur 0 1012 -1 70
2019-08-05 15:00:00 26.7 9 Sur 14 Sur 0 1012.5 -0.4 73
2019-08-05 14:00:00 25.5 10 Sur 16 Sur 0 1013.2 0.3 80
2019-08-05 13:00:00 24.4 11 Sur 27 Sudeste 0 1013 0.6 85
2019-08-05 12:00:00 24.8 18 Sudeste 24 Sudeste 0 1012.9 -0.2 86
2019-08-05 11:00:00 25.6 6 Sur 16 Sur 0 1012.9 0.1 82
2019-08-05 10:00:00 26.8 3 Noroeste 9 Noroeste 0 1012.4 0.6 73
2019-08-05 09:00:00 25.5 0 Calma 9 Este 0 1013.1 1.3 84
2019-08-05 08:00:00 22.3 6 Este 9 Este 0 1012.8 0.8 86
2019-08-05 07:00:00 21.5 5 Nordeste 9 Nordeste 0 1011.8 -0.8 90
2019-08-05 06:00:00 21.2 0 Calma 7 Nordeste 0 1011.8 -1 94
2019-08-05 05:00:00 21.8 0 Calma 5 Norte 0 1012 -1.3 95
2019-08-05 04:00:00 22.1 3 Norte 8 Sudoeste 0 1012.6 -0.3 95
2019-08-05 03:00:00 23 5 Oeste 9 Oeste 0 1012.8 0.1 95
2019-08-05 02:00:00 23 0 Calma 7 Sur 0 1013.3 0.3 94
2019-08-05 01:00:00 23.4 2 Sudeste 6 Sudeste 0 1012.9 0.3 90
2019-08-05 00:00:00 23.7 4 Sur 9 Sur 0 1012.7 1.1 85
2019-08-04 23:00:00 23.9 5 Oeste 17 Oeste 0 1013 1.8 85
2019-08-04 22:00:00 25.2 5 Oeste 10 Sudoeste 0 1012.6 1.3 71
2019-08-04 21:00:00 25.8 5 Oeste 9 Oeste 0 1011.6 -0.2 65
2019-08-04 20:00:00 26.1 5 Oeste 14 Sudoeste 0 1011.2 -1 73
2019-08-04 19:00:00 24.9 12 Sur 15 Sur 0 1011.3 -1.5 84
2019-08-04 18:00:00 25.6 7 Sur 14 Sur 0 1011.8 -1.6 81
2019-08-04 17:00:00 25.9 8 Sur 14 Sur 0 1012.2 -0.9 84
2019-08-04 16:00:00 26.4 8 Sur 13 Sur 0 1012.8 -0.7 77
2019-08-04 15:00:00 26.2 8 Sur 14 Sur 0 1013.4 -0.3 77
2019-08-04 14:00:00 25.6 8 Sur 15 Sudoeste 0 1013.1 -0.6 77
2019-08-04 13:00:00 24.9 10 Sur 14 Sudoeste 0 1013.5 0 84
2019-08-04 12:00:00 24.4 9 Sudoeste 14 Sudoeste 0 1013.7 0.8 84
2019-08-04 11:00:00 25.5 8 Sur 14 Sudeste 0 1013.7 1.8 81
2019-08-04 10:00:00 26.3 7 Sudeste 10 Sudeste 0 1013.5 2 81
2019-08-04 09:00:00 25.5 0 Calma 13 Oeste 0 1012.9 1.5 85
2019-08-04 08:00:00 22.9 6 Noroeste 22 Oeste 0 1011.9 0.2 93
2019-08-04 07:00:00 23.4 14 Oeste 25 Oeste 0 1011.5 -1.2 83
2019-08-04 06:00:00 25.7 13 Oeste 22 Noroeste 0 1011.4 -1.8 70
2019-08-04 05:00:00 24.1 4 Noroeste 9 Noroeste 0 1011.7 -2.1 80
2019-08-04 04:00:00 23.1 0 Calma 6 Oeste 0 1012.7 -1.2 88
2019-08-04 03:00:00 22.9 2 Sudeste 4 Sudeste 0 1013.2 -0.4 91
2019-08-04 02:00:00 23.4 0 Calma 5 Noroeste 0 1013.8 1.5 93
2019-08-04 01:00:00 23.5 0 Calma 11 Sudoeste 0 1013.9 1.7 95
2019-08-04 00:00:00 23.9 5 Sudoeste 14 Sudoeste 0 1013.6 1.7 95
2019-08-03 23:00:00 25.5 0 Calma 4 Nordeste 0 1012.3 0.9 77
2019-08-03 22:00:00 24.9 0 Calma 12 Oeste 0 1012.2 0.7 81
2019-08-03 21:00:00 25.1 6 Oeste 13 Oeste 0 1011.9 -0.6 81
2019-08-03 20:00:00 26.3 7 Sudoeste 16 Sudoeste 0 1011.4 -1.9 77
2019-08-03 19:00:00 26.2 9 Sudoeste 15 Sudoeste 0 1011.5 -1.7 78
2019-08-03 18:00:00 26.6 8 Sudoeste 16 Sudoeste 0 1012.5 -1 77
2019-08-03 17:00:00 26.4 9 Sur 14 Sur 0 1013.3 -0.3 81
2019-08-03 16:00:00 26.4 8 Sur 13 Sur 0 1013.2 -0.9 79
2019-08-03 15:00:00 26.7 8 Sur 14 Sur 0 1013.5 -0.9 81
2019-08-03 14:00:00 26.8 8 Sur 14 Sur 0 1013.6 -0.5 76
2019-08-03 13:00:00 25.9 9 Sur 13 Sur 0 1014.1 -0.1 77
2019-08-03 12:00:00 26.4 5 Sudoeste 11 Sur 0 1014.4 0.7 79
2019-08-03 11:00:00 24.9 6 Sur 11 Sudoeste 0 1014.1 1.2 87
2019-08-03 10:00:00 25 5 Sur 16 Sudeste 0 1014.2 1.6 89
2019-08-03 09:00:00 24.9 5 Sudeste 11 Sur 0 1013.7 1.1 86
2019-08-03 08:00:00 22.1 0 Calma 6 Norte 0 1012.9 0.6 93
2019-08-03 07:00:00 21.9 0 Calma 5 Norte 0 1012.6 0 93
2019-08-03 06:00:00 22 0 Calma 4 Sur 0 1012.6 -0.2 93
2019-08-03 05:00:00 22.2 0 Calma 6 Norte 0 1012.3 -0.9 91
2019-08-03 04:00:00 22.6 3 Norte 4 Noroeste 0 1012.6 -0.9 91
2019-08-03 03:00:00 22.7 2 Norte 5 Norte 0 1012.8 -1 90
2019-08-03 02:00:00 22.8 2 Sudeste 7 Sudeste 0 1013.2 -0.4 89
2019-08-03 01:00:00 23 2 Norte 5 Norte 0 1013.5 0.7 91
2019-08-03 00:00:00 23.6 0 Calma 4 Norte 0 1013.8 2.1 94
2019-08-02 23:00:00 23.8 0 Calma 5 Sur 0 1013.6 2.1 92
2019-08-02 22:00:00 24 3 Sur 7 Sur 0 1012.8 1.5 91
2019-08-02 21:00:00 24.5 4 Sur 12 Sur 0 1011.7 -0.3 85
2019-08-02 20:00:00 25.1 8 Sudoeste 14 Sur 0 1011.5 -1.3 82
2019-08-02 19:00:00 25.5 10 Sudoeste 15 Sudoeste 0 1011.3 -2.3 85
2019-08-02 18:00:00 25.4 11 Sudoeste 15 Sudoeste 0 1012 -1.7 82
2019-08-02 17:00:00 26.4 7 Sur 14 Sur 0 1012.8 -1.3 77
2019-08-02 16:00:00 26.4 10 Sudeste 14 Sudeste 0 1013.6 -0.2 77
2019-08-02 15:00:00 27.1 8 Sudeste 14 Sudeste 0 1013.7 0.1 75
2019-08-02 14:00:00 26.7 9 Sudeste 13 Sur 0 1014.1 0.7 77
2019-08-02 13:00:00 24.2 10 Sur 14 Sur 0 1013.8 1.2 87
2019-08-02 12:00:00 25.7 9 Sudeste 15 Sudeste 0 1013.6 1.7 84
2019-08-02 11:00:00 25.3 11 Sudeste 15 Sudeste 0 1013.4 2.1 82
2019-08-02 10:00:00 25.2 9 Sudeste 13 Sudeste 0 1012.6 1.9 80
2019-08-02 09:00:00 24 3 Oeste 11 Sur 0 1011.9 0.5 87
2019-08-02 08:00:00 22.6 6 Sur 14 Noroeste 0 1011.3 -0.4 89
2019-08-02 07:00:00 23 7 Oeste 15 Oeste 0 1010.7 -1.3 87
2019-08-02 06:00:00 23.1 7 Oeste 16 Oeste 0 1011.4 -1.6 86
2019-08-02 05:00:00 23.1 6 Oeste 11 Oeste 0 1011.7 -1.5 87
2019-08-02 04:00:00 23.3 7 Noroeste 12 Noroeste 0 1012 -0.7 86
2019-08-02 03:00:00 23.2 2 Oeste 6 Oeste 0 1013 1.1 85
2019-08-02 02:00:00 23.2 2 Este 5 Noroeste 0 1013.2 1 85
2019-08-02 01:00:00 24 2 Oeste 8 Oeste 0 1012.7 0.9 80
2019-08-02 00:00:00 24.3 3 Sudoeste 5 Sudoeste 0 1011.9 0.7 77
2019-08-01 23:00:00 24.7 0 Calma 4 Sur 0 1012.2 1.7 76
2019-08-01 22:00:00 24.7 0 Calma 8 Oeste 0 1011.8 1.7 76
2019-08-01 21:00:00 25.7 2 Oeste 16 Oeste 0 1011.2 0.6 76
2019-08-01 20:00:00 26 6 Sudoeste 14 Sur 0 1010.5 -0.9 74
2019-08-01 19:00:00 26.9 7 Sur 15 Sudoeste 0 1010.1 -1.5 67
2019-08-01 18:00:00 26.8 10 Sur 16 Sur 0 1010.6 -1.1 66
2019-08-01 17:00:00 27.7 8 Sudoeste 20 Sudoeste 0 1011.4 -0.9 61
2019-08-01 16:00:00 27.1 11 Sudoeste 20 Sudoeste 0 1011.6 -1 60
2019-08-01 15:00:00 27.4 8 Sudoeste 16 Sudoeste 0 1011.7 -1.2 58
2019-08-01 14:00:00 26.1 10 Sudoeste 15 Sudoeste 0 1012.3 0.3 68
2019-08-01 13:00:00 26.6 6 Sudoeste 10 Sudoeste 0 1012.6 1.2 68
2019-08-01 12:00:00 27.3 5 Sur 10 Sur 0 1012.9 1.5 70
2019-08-01 11:00:00 25.1 6 Sudoeste 18 Sudoeste 0 1012 0.8 80
2019-08-01 10:00:00 26 5 Sudoeste 16 Nordeste 0 1011.4 0.2 73
2019-08-01 09:00:00 23.1 5 Nordeste 12 Este 0 1011.4 0.3 90
2019-08-01 08:00:00 21.8 0 Calma 5 Nordeste 0 1011.2 -0.3 96
2019-08-01 07:00:00 21.4 0 Calma 5 Sur 0 1011.2 0 96
2019-08-01 06:00:00 21.6 0 Calma 5 Sudoeste 0 1011.1 -0.6 96
2019-08-01 05:00:00 21.8 0 Calma 5 Este 0 1011.5 -0.5 96
2019-08-01 04:00:00 22 4 Este 7 Este 0 1011.2 -0.2 95
2019-08-01 03:00:00 21.8 4 Nordeste 8 Nordeste 0 1011.7 0.4 94
2019-08-01 02:00:00 22.6 3 Nordeste 8 Sudoeste 0 1012 0.9 90
2019-08-01 01:00:00 23.3 3 Sudoeste 13 Oeste 0 1011.4 0.3 89
2019-08-01 00:00:00 23.4 10 Oeste 17 Oeste 0 1011.3 -0.3 89
2019-07-31 23:00:00 23.6 6 Oeste 12 Oeste 0 1011.1 0.7 86
2019-07-31 22:00:00 24 6 Oeste 14 Sudoeste 0 1011.1 1.2 85
2019-07-31 21:00:00 24.6 6 Sudoeste 23 Oeste 0 1011.6 1.4 82
2019-07-31 20:00:00 25.6 13 Sudoeste 26 Oeste 0 1010.4 0 76
2019-07-31 19:00:00 26.6 11 Sudoeste 26 Oeste 0 1009.9 -0.8 66
2019-07-31 18:00:00 27.3 12 Sudoeste 26 Sudoeste 0 1010.2 -0.8 62
2019-07-31 17:00:00 26.8 13 Sudoeste 26 Oeste 0 1010.4 -1.2 61
2019-07-31 16:00:00 27.3 12 Sudoeste 23 Sudoeste 0 1010.7 -1.3 61
2019-07-31 15:00:00 27.4 12 Sudoeste 23 Sudoeste 0 1011 -1.1 60
2019-07-31 14:00:00 27.7 10 Sudoeste 20 Sur 0 1011.6 -0.5 61
2019-07-31 13:00:00 28.5 6 Sudoeste 18 Oeste 0 1012 0.1 58
2019-07-31 12:00:00 24.4 12 Sudoeste 19 Sudoeste 0 1012.1 -0.1 77
2019-07-31 11:00:00 25.5 6 Sur 14 Sur 0 1012.1 -0.1 74
2019-07-31 10:00:00 27.6 0 Calma 18 Noroeste 0 1011.9 0.5 69
2019-07-31 09:00:00 23.2 5 Noroeste 12 Noroeste 0 1012.2 0.5 89
2019-07-31 08:00:00 22.3 2 Norte 12 Sur 0 1012.2 1.9 92
2019-07-31 07:00:00 22.2 2 Este 13 Noroeste 0 1011.4 4 92
2019-07-31 06:00:00 22.5 5 Oeste 15 Noroeste 0 1011.7 0.4 92
2019-07-31 05:00:00 22.5 4 Oeste 28 Sur 0 1010.3 -1.8 92
2019-07-31 04:00:00 22.7 5 Norte 9 Noroeste 0 1007.4 -5.7 90
2019-07-31 03:00:00 22.7 2 Nordeste 15 Sur 0 1011.3 -1.8 90
2019-07-31 02:00:00 23 7 Sudoeste 11 Sudoeste 0 1012.1 0.4 89
2019-07-31 01:00:00 23.6 3 Nordeste 12 Sur 0 1013.1 3.1 82
2019-07-31 00:00:00 24.1 4 Noroeste 17 Este 0 1013.1 3.6 74
2019-07-30 23:00:00 23.4 3 Sudeste 14 Este 0 1011.7 2.1 77
2019-07-30 22:00:00 24.1 3 Norte 23 Sudeste 0 1010 0.5 77
2019-07-30 21:00:00 24.3 5 Sur 11 Sudoeste 0 1009.5 -0.7 81
2019-07-30 20:00:00 24.3 6 Sudoeste 14 Sur 0 1009.6 -0.7 81
2019-07-30 19:00:00 24.7 7 Sudoeste 19 Sudoeste 0 1009.5 -0.9 77
2019-07-30 18:00:00 25.8 6 Sur 12 Sur 0 1010.2 -0.9 71
2019-07-30 17:00:00 25.7 7 Sur 12 Sudoeste 0 1010.3 -1.2 72
2019-07-30 16:00:00 25.5 8 Sur 13 Sur 0 1010.4 -1.7 71
2019-07-30 15:00:00 25.1 7 Sur 14 Sur 0 1011.1 -0.7 74
2019-07-30 14:00:00 24.7 8 Sur 13 Sudoeste 0 1011.5 0.1 74
2019-07-30 13:00:00 24.3 7 Sudoeste 15 Sur 0 1012.1 1 75
2019-07-30 12:00:00 23.6 9 Sur 14 Sur 0 1011.8 0.7 76
2019-07-30 11:00:00 24.9 7 Sur 10 Sudoeste 0 1011.4 0.9 74
2019-07-30 10:00:00 23.1 6 Oeste 10 Oeste 0 1011.1 0.8 78
2019-07-30 09:00:00 22.1 3 Sudoeste 5 Sur 0 1011.1 1.3 85
2019-07-30 08:00:00 19.5 0 Calma 5 Nordeste 0 1010.5 0.5 99
2019-07-30 07:00:00 19.5 0 Calma 3 Sur 0 1010.3 0.7 99
2019-07-30 06:00:00 19.7 2 Sudeste 5 Este 0 1009.8 0.2 99
2019-07-30 05:00:00 19.9 3 Noroeste 14 Noroeste 0 1010 0.3 99
2019-07-30 04:00:00 20.1 4 Noroeste 11 Noroeste 0 1009.6 -0.2 99
2019-07-30 03:00:00 20.2 3 Noroeste 14 Sudeste 0 1009.6 -0.6 99
2019-07-30 02:00:00 20.3 8 Sudeste 12 Sudeste 0 1009.7 -0.1 97
2019-07-30 01:00:00 20.7 2 Sudeste 9 Sudeste 0 1009.8 0.7 96
2019-07-30 00:00:00 21.1 6 Sudeste 10 Sudeste 0 1010.2 1.5 95
2019-07-29 23:00:00 21.7 4 Sudeste 12 Sur 0 1009.8 0.9 92
2019-07-29 22:00:00 22.1 9 Sudoeste 14 Sur 0 1009.1 0.1 90
2019-07-29 21:00:00 26.3 0 Calma 9 Noroeste 0 1008.7 -1 65
2019-07-29 20:00:00 25.1 4 Sur 10 Sur 0 1008.9 -1.1 76
2019-07-29 19:00:00 25.3 6 Sur 12 Sur 0 1009 -1.2 70
2019-07-29 18:00:00 26.4 5 Sudoeste 15 Sur 0 1009.7 -1.1 62
2019-07-29 17:00:00 23.3 8 Sur 14 Sur 0 1010 -1 84
2019-07-29 16:00:00 23.1 10 Sur 14 Sur 0 1010.2 -0.9 85
2019-07-29 15:00:00 22.7 7 Sur 12 Sur 0 1010.8 -0.2 85
2019-07-29 14:00:00 23.9 8 Sur 15 Sur 0 1011 0.3 79
2019-07-29 13:00:00 23 7 Sur 14 Sur 0 1011.1 0.8 82
2019-07-29 12:00:00 24.4 6 Sudeste 12 Sudeste 0 1011 0.7 77
2019-07-29 11:00:00 23.8 7 Sur 13 Sudoeste 0 1010.7 0.8 77
2019-07-29 10:00:00 22.9 6 Sur 9 Sur 0 1010.3 0.7 77
2019-07-29 09:00:00 22.4 0 Calma 8 Sudeste 0 1010.3 0.9 91
2019-07-29 08:00:00 19.9 0 Calma 6 Norte 0 1009.9 0.6 99
2019-07-29 07:00:00 19.3 3 Este 6 Sudeste 0 1009.6 0.5 99
2019-07-29 06:00:00 19.4 2 Este 7 Sudeste 0 1009.4 0.3 97
2019-07-29 05:00:00 19.7 4 Sudeste 6 Sudeste 0 1009.3 0 97
2019-07-29 04:00:00 19.9 4 Este 5 Nordeste 0 1009.1 -0.5 94
2019-07-29 03:00:00 20.3 3 Noroeste 7 Oeste 0 1009.1 -0.5 94
2019-07-29 02:00:00 20.5 2 Noroeste 7 Oeste 0 1009.3 -0.1 92
2019-07-29 01:00:00 20.5 0 Calma 4 Norte 0 1009.6 1 92
2019-07-29 00:00:00 20.7 0 Calma 9 Sudoeste 0 1009.6 1.3 93
2019-07-28 23:00:00 21 6 Sudoeste 9 Sudoeste 0 1009.4 1.5 90
2019-07-28 22:00:00 21.8 0 Calma 8 Oeste 0 1008.6 0.5 81
2019-07-28 21:00:00 23 4 Oeste 12 Sudoeste 0 1008.3 0 77
2019-07-28 20:00:00 23.3 6 Sudoeste 14 Sudoeste 0 1007.9 -0.8 77
2019-07-28 19:00:00 22.4 9 Sudoeste 15 Sur 0 1008.1 -0.7 80
2019-07-28 18:00:00 23.9 7 Sudoeste 15 Sudoeste 0 1008.3 -0.8 76
2019-07-28 17:00:00 22.7 10 Sur 21 Sur 0 1008.7 -0.8 79
2019-07-28 16:00:00 23.2 10 Sur 32 Oeste 0 1008.8 -0.7 77
2019-07-28 15:00:00 24 12 Oeste 31 Oeste 0 1009.1 -0.5 73
2019-07-28 14:00:00 23.1 8 Sur 17 Sudoeste 0 1009.5 0 76
2019-07-28 13:00:00 23.5 8 Sur 14 Sur 0 1009.5 0.4 77
2019-07-28 12:00:00 23 8 Sur 13 Sur 0 1009.6 0.9 76
2019-07-28 11:00:00 23.3 9 Sudeste 12 Sudeste 0 1009.5 1.6 76
2019-07-28 10:00:00 23.9 5 Sur 15 Oeste 0 1009.1 1.5 77
2019-07-28 09:00:00 21.8 6 Oeste 16 Oeste 0 1008.7 1.5 85
2019-07-28 08:00:00 20.5 2 Oeste 14 Oeste 0 1007.9 0.7 95
2019-07-28 07:00:00 20.2 4 Noroeste 9 Noroeste 0 1007.6 0.3 94
2019-07-28 06:00:00 20.4 3 Noroeste 21 Oeste 0 1007.2 -0.3 93
2019-07-28 05:00:00 21.1 9 Oeste 22 Oeste 0 1007.2 0 91
2019-07-28 04:00:00 20.9 17 Oeste 28 Oeste 0 1007.3 0 91
2019-07-28 03:00:00 21.3 12 Oeste 24 Oeste 0 1007.5 0.5 89
2019-07-28 02:00:00 21.9 13 Oeste 28 Oeste 0 1007.2 0.6 82
2019-07-28 01:00:00 23.4 15 Oeste 32 Oeste 0 1007.3 1.2 73
2019-07-28 00:00:00 25.2 18 Oeste 37 Oeste 0 1007 1.6 65
2019-07-27 23:00:00 23.7 17 Oeste 36 Oeste 0 1006.6 1.1 74
2019-07-26 12:00:00 24.9 13 Oeste 37 Oeste 0 1011.3 0.1 81
2019-07-26 11:00:00 24.1 15 Oeste 33 Oeste 0 1011.2 0.4 86
2019-07-26 10:00:00 24 15 Oeste 32 Oeste 0 1011.1 0.4 89
2019-07-26 09:00:00 23.5 15 Oeste 29 Oeste 0 1011.2 0.3 84
2019-07-26 08:00:00 22 9 Oeste 16 Oeste 0 1010.8 -0.2 77
2019-07-26 07:00:00 20.1 4 Norte 7 Norte 0 1010.7 -0.6 93
2019-07-26 06:00:00 20.9 0 Calma 5 Noroeste 0 1010.9 -1 90
2019-07-26 05:00:00 21.4 0 Calma 8 Norte 0 1011 -1.3 91
2019-07-26 04:00:00 21.9 3 Noroeste 9 Oeste 0 1011.3 -1.9 92
2019-07-26 03:00:00 23.2 5 Noroeste 20 Oeste 0 1011.9 -1.3 92
2019-07-26 02:00:00 23.1 0 Calma 8 Noroeste 0 1012.3 -0.6 80
2019-07-26 01:00:00 23.4 3 Noroeste 9 Sudoeste 0 1013.2 1.1 77
2019-07-26 00:00:00 24.7 3 Nordeste 5 Nordeste 0 1013.2 1.7 73